sensor_id;sensor_type;location;lat;lon;timestamp;temperature;humidity
17341;DHT22;8788;49.930;8.660;2023-06-14T00:00:49;18.80;73.90
17341;DHT22;8788;49.930;8.660;2023-06-14T00:03:18;18.80;74.00
17341;DHT22;8788;49.930;8.660;2023-06-14T00:05:48;18.60;74.30
17341;DHT22;8788;49.930;8.660;2023-06-14T00:08:15;18.60;74.40
17341;DHT22;8788;49.930;8.660;2023-06-14T00:10:45;18.60;74.60
17341;DHT22;8788;49.930;8.660;2023-06-14T00:13:12;18.60;74.60
17341;DHT22;8788;49.930;8.660;2023-06-14T00:15:40;18.60;74.60
17341;DHT22;8788;49.930;8.660;2023-06-14T00:18:08;18.60;74.60
17341;DHT22;8788;49.930;8.660;2023-06-14T00:20:37;18.60;74.60
17341;DHT22;8788;49.930;8.660;2023-06-14T00:23:05;18.60;74.60
17341;DHT22;8788;49.930;8.660;2023-06-14T00:25:32;18.60;74.60
17341;DHT22;8788;49.930;8.660;2023-06-14T00:28:01;18.60;74.40
17341;DHT22;8788;49.930;8.660;2023-06-14T00:30:28;18.60;74.40
17341;DHT22;8788;49.930;8.660;2023-06-14T00:32:56;18.60;74.20
17341;DHT22;8788;49.930;8.660;2023-06-14T00:35:25;18.60;74.10
17341;DHT22;8788;49.930;8.660;2023-06-14T00:37:52;18.50;74.50
17341;DHT22;8788;49.930;8.660;2023-06-14T00:40:20;18.40;74.80
17341;DHT22;8788;49.930;8.660;2023-06-14T00:42:48;18.40;75.10
17341;DHT22;8788;49.930;8.660;2023-06-14T00:45:17;18.40;75.10
17341;DHT22;8788;49.930;8.660;2023-06-14T00:47:46;18.30;75.20
17341;DHT22;8788;49.930;8.660;2023-06-14T00:50:13;18.30;75.30
17341;DHT22;8788;49.930;8.660;2023-06-14T00:52:41;18.20;75.40
17341;DHT22;8788;49.930;8.660;2023-06-14T00:55:08;18.20;75.40
17341;DHT22;8788;49.930;8.660;2023-06-14T00:57:36;18.20;75.10
17341;DHT22;8788;49.930;8.660;2023-06-14T01:00:06;18.30;74.80
17341;DHT22;8788;49.930;8.660;2023-06-14T01:02:37;18.30;74.50
17341;DHT22;8788;49.930;8.660;2023-06-14T01:05:05;18.40;74.20
17341;DHT22;8788;49.930;8.660;2023-06-14T01:07:40;18.50;74.00
17341;DHT22;8788;49.930;8.660;2023-06-14T01:10:20;18.50;73.60
17341;DHT22;8788;49.930;8.660;2023-06-14T01:12:53;18.50;73.50
17341;DHT22;8788;49.930;8.660;2023-06-14T01:15:25;18.50;73.40
17341;DHT22;8788;49.930;8.660;2023-06-14T01:17:55;18.40;73.20
17341;DHT22;8788;49.930;8.660;2023-06-14T01:20:28;18.40;73.20
17341;DHT22;8788;49.930;8.660;2023-06-14T01:22:58;18.40;73.20
17341;DHT22;8788;49.930;8.660;2023-06-14T01:25:25;18.40;73.20
17341;DHT22;8788;49.930;8.660;2023-06-14T01:27:57;18.40;73.00
17341;DHT22;8788;49.930;8.660;2023-06-14T01:30:25;18.40;72.90
17341;DHT22;8788;49.930;8.660;2023-06-14T01:32:54;18.40;72.90
17341;DHT22;8788;49.930;8.660;2023-06-14T01:35:23;18.30;72.90
17341;DHT22;8788;49.930;8.660;2023-06-14T01:37:51;18.40;73.00
17341;DHT22;8788;49.930;8.660;2023-06-14T01:40:21;18.30;72.90
17341;DHT22;8788;49.930;8.660;2023-06-14T01:42:50;18.30;73.00
17341;DHT22;8788;49.930;8.660;2023-06-14T01:45:18;18.30;72.90
17341;DHT22;8788;49.930;8.660;2023-06-14T01:47:47;18.30;72.90
17341;DHT22;8788;49.930;8.660;2023-06-14T01:50:15;18.20;72.90
17341;DHT22;8788;49.930;8.660;2023-06-14T01:52:43;18.30;72.90
17341;DHT22;8788;49.930;8.660;2023-06-14T01:55:10;18.20;72.90
17341;DHT22;8788;49.930;8.660;2023-06-14T01:57:39;18.20;72.90
17341;DHT22;8788;49.930;8.660;2023-06-14T02:00:08;18.20;72.90
17341;DHT22;8788;49.930;8.660;2023-06-14T02:02:38;18.20;72.90
17341;DHT22;8788;49.930;8.660;2023-06-14T02:05:06;18.20;72.90
17341;DHT22;8788;49.930;8.660;2023-06-14T02:07:33;18.30;72.90
17341;DHT22;8788;49.930;8.660;2023-06-14T02:10:00;18.30;72.90
17341;DHT22;8788;49.930;8.660;2023-06-14T02:12:27;18.20;72.90
17341;DHT22;8788;49.930;8.660;2023-06-14T02:14:58;18.30;72.90
17341;DHT22;8788;49.930;8.660;2023-06-14T02:17:25;18.30;72.90
17341;DHT22;8788;49.930;8.660;2023-06-14T02:19:54;18.30;72.90
17341;DHT22;8788;49.930;8.660;2023-06-14T02:22:22;18.30;72.90
17341;DHT22;8788;49.930;8.660;2023-06-14T02:24:50;18.30;72.80
17341;DHT22;8788;49.930;8.660;2023-06-14T02:27:17;18.30;72.90
17341;DHT22;8788;49.930;8.660;2023-06-14T02:29:44;18.40;72.80
17341;DHT22;8788;49.930;8.660;2023-06-14T02:32:13;18.40;72.90
17341;DHT22;8788;49.930;8.660;2023-06-14T02:34:40;18.30;72.80
17341;DHT22;8788;49.930;8.660;2023-06-14T02:37:07;18.20;73.20
17341;DHT22;8788;49.930;8.660;2023-06-14T02:39:34;18.10;73.40
17341;DHT22;8788;49.930;8.660;2023-06-14T02:42:03;18.10;73.60
17341;DHT22;8788;49.930;8.660;2023-06-14T02:44:31;18.00;74.00
17341;DHT22;8788;49.930;8.660;2023-06-14T02:46:59;18.00;74.10
17341;DHT22;8788;49.930;8.660;2023-06-14T02:49:28;17.90;74.10
17341;DHT22;8788;49.930;8.660;2023-06-14T02:51:56;17.90;74.20
17341;DHT22;8788;49.930;8.660;2023-06-14T02:54:23;17.90;74.20
17341;DHT22;8788;49.930;8.660;2023-06-14T02:56:51;17.90;74.10
17341;DHT22;8788;49.930;8.660;2023-06-14T02:59:18;17.90;74.10
17341;DHT22;8788;49.930;8.660;2023-06-14T03:01:47;18.00;74.00
17341;DHT22;8788;49.930;8.660;2023-06-14T03:04:14;18.00;74.00
17341;DHT22;8788;49.930;8.660;2023-06-14T03:06:43;17.90;74.10
17341;DHT22;8788;49.930;8.660;2023-06-14T03:09:17;17.90;74.10
17341;DHT22;8788;49.930;8.660;2023-06-14T03:11:46;17.90;74.10
17341;DHT22;8788;49.930;8.660;2023-06-14T03:14:13;17.90;74.10
17341;DHT22;8788;49.930;8.660;2023-06-14T03:16:43;17.90;74.10
17341;DHT22;8788;49.930;8.660;2023-06-14T03:19:12;17.90;74.10
17341;DHT22;8788;49.930;8.660;2023-06-14T03:21:40;18.00;74.10
17341;DHT22;8788;49.930;8.660;2023-06-14T03:24:12;17.90;74.10
17341;DHT22;8788;49.930;8.660;2023-06-14T03:26:39;17.90;74.10
17341;DHT22;8788;49.930;8.660;2023-06-14T03:29:06;17.90;74.20
17341;DHT22;8788;49.930;8.660;2023-06-14T03:31:34;17.80;74.10
17341;DHT22;8788;49.930;8.660;2023-06-14T03:34:04;17.80;74.30
17341;DHT22;8788;49.930;8.660;2023-06-14T03:36:31;17.90;74.40
17341;DHT22;8788;49.930;8.660;2023-06-14T03:38:59;17.80;74.30
17341;DHT22;8788;49.930;8.660;2023-06-14T03:41:27;17.90;74.30
17341;DHT22;8788;49.930;8.660;2023-06-14T03:43:54;17.90;74.30
17341;DHT22;8788;49.930;8.660;2023-06-14T03:46:22;17.80;74.30
17341;DHT22;8788;49.930;8.660;2023-06-14T03:48:49;17.80;74.40
17341;DHT22;8788;49.930;8.660;2023-06-14T03:51:17;17.80;74.50
17341;DHT22;8788;49.930;8.660;2023-06-14T03:53:44;17.80;74.60
17341;DHT22;8788;49.930;8.660;2023-06-14T03:56:12;17.80;74.60
17341;DHT22;8788;49.930;8.660;2023-06-14T03:58:44;17.80;74.50
17341;DHT22;8788;49.930;8.660;2023-06-14T04:01:11;17.80;74.70
17341;DHT22;8788;49.930;8.660;2023-06-14T04:03:38;17.80;74.70
17341;DHT22;8788;49.930;8.660;2023-06-14T04:06:06;17.90;74.70
17341;DHT22;8788;49.930;8.660;2023-06-14T04:08:33;18.00;74.80
17341;DHT22;8788;49.930;8.660;2023-06-14T04:11:01;18.00;74.60
17341;DHT22;8788;49.930;8.660;2023-06-14T04:13:28;18.00;74.60
17341;DHT22;8788;49.930;8.660;2023-06-14T04:15:57;18.00;74.60
17341;DHT22;8788;49.930;8.660;2023-06-14T04:18:35;18.10;74.50
17341;DHT22;8788;49.930;8.660;2023-06-14T04:21:02;18.10;74.60
17341;DHT22;8788;49.930;8.660;2023-06-14T04:23:30;18.10;74.50
17341;DHT22;8788;49.930;8.660;2023-06-14T04:26:00;18.10;74.60
17341;DHT22;8788;49.930;8.660;2023-06-14T04:28:28;18.10;74.70
17341;DHT22;8788;49.930;8.660;2023-06-14T04:30:59;18.10;74.90
17341;DHT22;8788;49.930;8.660;2023-06-14T04:33:29;18.20;74.90
17341;DHT22;8788;49.930;8.660;2023-06-14T04:35:57;18.10;74.90
17341;DHT22;8788;49.930;8.660;2023-06-14T04:38:25;18.10;74.90
17341;DHT22;8788;49.930;8.660;2023-06-14T04:40:54;18.10;75.00
17341;DHT22;8788;49.930;8.660;2023-06-14T04:43:24;18.00;75.10
17341;DHT22;8788;49.930;8.660;2023-06-14T04:45:52;18.00;75.20
17341;DHT22;8788;49.930;8.660;2023-06-14T04:48:22;18.10;75.40
17341;DHT22;8788;49.930;8.660;2023-06-14T04:50:50;18.20;75.40
17341;DHT22;8788;49.930;8.660;2023-06-14T04:53:19;18.20;75.30
17341;DHT22;8788;49.930;8.660;2023-06-14T04:55:50;18.30;75.30
17341;DHT22;8788;49.930;8.660;2023-06-14T04:58:18;18.30;75.30
17341;DHT22;8788;49.930;8.660;2023-06-14T05:00:46;18.30;75.20
17341;DHT22;8788;49.930;8.660;2023-06-14T05:03:13;18.30;75.20
17341;DHT22;8788;49.930;8.660;2023-06-14T05:05:43;18.30;75.20
17341;DHT22;8788;49.930;8.660;2023-06-14T05:08:10;18.40;75.30
17341;DHT22;8788;49.930;8.660;2023-06-14T05:10:37;18.40;75.40
17341;DHT22;8788;49.930;8.660;2023-06-14T05:13:05;18.40;75.30
17341;DHT22;8788;49.930;8.660;2023-06-14T05:15:32;18.50;75.40
17341;DHT22;8788;49.930;8.660;2023-06-14T05:17:59;18.50;75.30
17341;DHT22;8788;49.930;8.660;2023-06-14T05:20:26;18.50;75.30
17341;DHT22;8788;49.930;8.660;2023-06-14T05:22:55;18.50;75.40
17341;DHT22;8788;49.930;8.660;2023-06-14T05:25:23;18.50;75.50
17341;DHT22;8788;49.930;8.660;2023-06-14T05:27:50;18.60;75.50
17341;DHT22;8788;49.930;8.660;2023-06-14T05:30:17;18.50;75.50
17341;DHT22;8788;49.930;8.660;2023-06-14T05:32:44;18.50;75.80
17341;DHT22;8788;49.930;8.660;2023-06-14T05:35:11;18.50;75.80
17341;DHT22;8788;49.930;8.660;2023-06-14T05:37:38;18.60;76.00
17341;DHT22;8788;49.930;8.660;2023-06-14T05:40:08;18.60;76.00
17341;DHT22;8788;49.930;8.660;2023-06-14T05:42:35;18.70;76.20
17341;DHT22;8788;49.930;8.660;2023-06-14T05:45:03;18.70;76.00
17341;DHT22;8788;49.930;8.660;2023-06-14T05:47:31;18.80;76.00
17341;DHT22;8788;49.930;8.660;2023-06-14T05:49:58;18.90;76.10
17341;DHT22;8788;49.930;8.660;2023-06-14T05:52:25;18.90;75.90
17341;DHT22;8788;49.930;8.660;2023-06-14T05:54:53;18.90;75.80
17341;DHT22;8788;49.930;8.660;2023-06-14T05:57:22;18.90;75.90
17341;DHT22;8788;49.930;8.660;2023-06-14T05:59:49;18.90;76.00
17341;DHT22;8788;49.930;8.660;2023-06-14T06:02:16;19.00;76.00
17341;DHT22;8788;49.930;8.660;2023-06-14T06:04:43;19.10;76.00
17341;DHT22;8788;49.930;8.660;2023-06-14T06:07:11;19.10;76.00
17341;DHT22;8788;49.930;8.660;2023-06-14T06:09:38;19.10;75.90
17341;DHT22;8788;49.930;8.660;2023-06-14T06:12:06;19.20;76.00
17341;DHT22;8788;49.930;8.660;2023-06-14T06:14:35;19.20;75.90
17341;DHT22;8788;49.930;8.660;2023-06-14T06:17:02;19.30;76.00
17341;DHT22;8788;49.930;8.660;2023-06-14T06:19:29;19.30;76.00
17341;DHT22;8788;49.930;8.660;2023-06-14T06:21:56;19.40;76.10
17341;DHT22;8788;49.930;8.660;2023-06-14T06:24:23;19.50;76.10
17341;DHT22;8788;49.930;8.660;2023-06-14T06:26:50;19.60;75.90
17341;DHT22;8788;49.930;8.660;2023-06-14T06:29:17;19.60;75.90
17341;DHT22;8788;49.930;8.660;2023-06-14T06:31:46;19.50;75.50
17341;DHT22;8788;49.930;8.660;2023-06-14T06:34:13;19.60;75.70
17341;DHT22;8788;49.930;8.660;2023-06-14T06:36:40;19.50;75.70
17341;DHT22;8788;49.930;8.660;2023-06-14T06:39:08;19.60;75.80
17341;DHT22;8788;49.930;8.660;2023-06-14T06:41:36;19.70;75.70
17341;DHT22;8788;49.930;8.660;2023-06-14T06:44:05;19.80;75.60
17341;DHT22;8788;49.930;8.660;2023-06-14T06:46:33;19.90;75.50
17341;DHT22;8788;49.930;8.660;2023-06-14T06:49:02;20.00;75.60
17341;DHT22;8788;49.930;8.660;2023-06-14T06:51:29;20.30;75.60
17341;DHT22;8788;49.930;8.660;2023-06-14T06:53:56;20.40;75.00
17341;DHT22;8788;49.930;8.660;2023-06-14T06:56:23;20.40;74.80
17341;DHT22;8788;49.930;8.660;2023-06-14T06:58:50;20.50;75.50
17341;DHT22;8788;49.930;8.660;2023-06-14T07:01:17;20.50;74.60
17341;DHT22;8788;49.930;8.660;2023-06-14T07:03:45;20.50;74.40
17341;DHT22;8788;49.930;8.660;2023-06-14T07:06:14;20.50;74.70
17341;DHT22;8788;49.930;8.660;2023-06-14T07:08:44;20.60;74.80
17341;DHT22;8788;49.930;8.660;2023-06-14T07:11:12;20.70;74.80
17341;DHT22;8788;49.930;8.660;2023-06-14T07:13:39;20.80;74.40
17341;DHT22;8788;49.930;8.660;2023-06-14T07:16:06;20.80;74.20
17341;DHT22;8788;49.930;8.660;2023-06-14T07:18:33;20.90;74.10
17341;DHT22;8788;49.930;8.660;2023-06-14T07:21:01;20.90;73.50
17341;DHT22;8788;49.930;8.660;2023-06-14T07:23:30;20.90;73.80
17341;DHT22;8788;49.930;8.660;2023-06-14T07:25:57;21.00;73.60
17341;DHT22;8788;49.930;8.660;2023-06-14T07:28:24;21.00;73.40
17341;DHT22;8788;49.930;8.660;2023-06-14T07:30:51;21.00;73.20
17341;DHT22;8788;49.930;8.660;2023-06-14T07:33:18;21.00;73.20
17341;DHT22;8788;49.930;8.660;2023-06-14T07:35:45;21.10;73.40
17341;DHT22;8788;49.930;8.660;2023-06-14T07:38:13;21.20;73.20
17341;DHT22;8788;49.930;8.660;2023-06-14T07:40:42;21.30;73.10
17341;DHT22;8788;49.930;8.660;2023-06-14T07:43:09;21.30;72.90
17341;DHT22;8788;49.930;8.660;2023-06-14T07:45:36;21.30;72.40
17341;DHT22;8788;49.930;8.660;2023-06-14T07:48:04;21.30;72.50
17341;DHT22;8788;49.930;8.660;2023-06-14T07:50:31;21.40;72.50
17341;DHT22;8788;49.930;8.660;2023-06-14T07:52:58;21.50;72.70
17341;DHT22;8788;49.930;8.660;2023-06-14T07:55:25;21.70;72.80
17341;DHT22;8788;49.930;8.660;2023-06-14T07:57:55;21.70;72.10
17341;DHT22;8788;49.930;8.660;2023-06-14T08:00:22;21.80;71.90
17341;DHT22;8788;49.930;8.660;2023-06-14T08:02:49;21.90;71.80
17341;DHT22;8788;49.930;8.660;2023-06-14T08:05:17;22.00;71.90
17341;DHT22;8788;49.930;8.660;2023-06-14T08:07:44;22.20;71.80
17341;DHT22;8788;49.930;8.660;2023-06-14T08:10:11;22.30;71.50
17341;DHT22;8788;49.930;8.660;2023-06-14T08:12:39;22.30;71.60
17341;DHT22;8788;49.930;8.660;2023-06-14T08:15:08;22.40;71.40
17341;DHT22;8788;49.930;8.660;2023-06-14T08:17:35;22.40;71.30
17341;DHT22;8788;49.930;8.660;2023-06-14T08:20:02;22.50;71.40
17341;DHT22;8788;49.930;8.660;2023-06-14T08:22:31;22.50;70.40
17341;DHT22;8788;49.930;8.660;2023-06-14T08:24:59;22.40;70.10
17341;DHT22;8788;49.930;8.660;2023-06-14T08:27:27;22.40;69.70
17341;DHT22;8788;49.930;8.660;2023-06-14T08:29:54;22.60;70.10
17341;DHT22;8788;49.930;8.660;2023-06-14T08:32:23;22.70;69.60
17341;DHT22;8788;49.930;8.660;2023-06-14T08:34:50;22.70;69.10
17341;DHT22;8788;49.930;8.660;2023-06-14T08:37:18;22.70;68.60
17341;DHT22;8788;49.930;8.660;2023-06-14T08:39:46;22.70;68.50
17341;DHT22;8788;49.930;8.660;2023-06-14T08:42:14;22.70;68.00
17341;DHT22;8788;49.930;8.660;2023-06-14T08:44:42;22.70;68.00
17341;DHT22;8788;49.930;8.660;2023-06-14T08:47:09;22.80;68.20
17341;DHT22;8788;49.930;8.660;2023-06-14T08:49:40;22.80;68.30
17341;DHT22;8788;49.930;8.660;2023-06-14T08:52:11;22.80;68.00
17341;DHT22;8788;49.930;8.660;2023-06-14T08:54:39;22.80;66.90
17341;DHT22;8788;49.930;8.660;2023-06-14T08:57:10;22.90;67.00
17341;DHT22;8788;49.930;8.660;2023-06-14T08:59:46;23.00;67.10
17341;DHT22;8788;49.930;8.660;2023-06-14T09:02:15;23.10;66.50
17341;DHT22;8788;49.930;8.660;2023-06-14T09:04:46;23.10;65.90
17341;DHT22;8788;49.930;8.660;2023-06-14T09:07:15;23.10;65.80
17341;DHT22;8788;49.930;8.660;2023-06-14T09:09:42;23.20;65.70
17341;DHT22;8788;49.930;8.660;2023-06-14T09:12:10;23.20;64.70
17341;DHT22;8788;49.930;8.660;2023-06-14T09:14:38;23.20;64.30
17341;DHT22;8788;49.930;8.660;2023-06-14T09:17:07;23.20;63.90
17341;DHT22;8788;49.930;8.660;2023-06-14T09:19:34;23.20;64.20
17341;DHT22;8788;49.930;8.660;2023-06-14T09:22:05;23.40;64.90
17341;DHT22;8788;49.930;8.660;2023-06-14T09:24:32;23.60;64.60
17341;DHT22;8788;49.930;8.660;2023-06-14T09:26:59;23.70;64.00
17341;DHT22;8788;49.930;8.660;2023-06-14T09:29:26;23.70;63.40
17341;DHT22;8788;49.930;8.660;2023-06-14T09:31:53;23.80;63.40
17341;DHT22;8788;49.930;8.660;2023-06-14T09:34:21;23.90;62.90
17341;DHT22;8788;49.930;8.660;2023-06-14T09:36:49;23.80;62.40
17341;DHT22;8788;49.930;8.660;2023-06-14T09:39:18;23.70;62.50
17341;DHT22;8788;49.930;8.660;2023-06-14T09:41:45;23.70;62.70
17341;DHT22;8788;49.930;8.660;2023-06-14T09:44:12;23.80;62.20
17341;DHT22;8788;49.930;8.660;2023-06-14T09:46:39;23.80;61.60
17341;DHT22;8788;49.930;8.660;2023-06-14T09:49:08;23.90;62.00
17341;DHT22;8788;49.930;8.660;2023-06-14T09:51:36;24.00;62.00
17341;DHT22;8788;49.930;8.660;2023-06-14T09:54:14;24.00;61.70
17341;DHT22;8788;49.930;8.660;2023-06-14T09:56:44;24.10;61.60
17341;DHT22;8788;49.930;8.660;2023-06-14T09:59:13;24.10;61.70
17341;DHT22;8788;49.930;8.660;2023-06-14T10:01:43;24.20;62.00
17341;DHT22;8788;49.930;8.660;2023-06-14T10:04:10;24.40;62.20
17341;DHT22;8788;49.930;8.660;2023-06-14T10:06:40;24.60;62.40
17341;DHT22;8788;49.930;8.660;2023-06-14T10:09:09;24.70;62.90
17341;DHT22;8788;49.930;8.660;2023-06-14T10:11:36;24.70;62.70
17341;DHT22;8788;49.930;8.660;2023-06-14T10:14:05;24.50;62.90
17341;DHT22;8788;49.930;8.660;2023-06-14T10:16:36;24.50;63.30
17341;DHT22;8788;49.930;8.660;2023-06-14T10:19:19;24.50;63.20
17341;DHT22;8788;49.930;8.660;2023-06-14T10:21:54;24.40;62.90
17341;DHT22;8788;49.930;8.660;2023-06-14T10:24:29;24.30;62.90
17341;DHT22;8788;49.930;8.660;2023-06-14T10:26:58;24.20;62.80
17341;DHT22;8788;49.930;8.660;2023-06-14T10:29:28;24.20;63.00
17341;DHT22;8788;49.930;8.660;2023-06-14T10:31:59;24.10;63.00
17341;DHT22;8788;49.930;8.660;2023-06-14T10:34:28;24.10;63.00
17341;DHT22;8788;49.930;8.660;2023-06-14T10:37:03;24.00;62.90
17341;DHT22;8788;49.930;8.660;2023-06-14T10:39:31;24.00;63.30
17341;DHT22;8788;49.930;8.660;2023-06-14T10:42:02;24.10;62.90
17341;DHT22;8788;49.930;8.660;2023-06-14T10:44:43;24.10;63.00
17341;DHT22;8788;49.930;8.660;2023-06-14T10:47:21;24.40;62.90
17341;DHT22;8788;49.930;8.660;2023-06-14T10:49:51;24.40;62.20
17341;DHT22;8788;49.930;8.660;2023-06-14T10:52:22;24.40;62.20
17341;DHT22;8788;49.930;8.660;2023-06-14T10:55:03;24.40;62.30
17341;DHT22;8788;49.930;8.660;2023-06-14T10:57:32;24.40;62.20
17341;DHT22;8788;49.930;8.660;2023-06-14T11:00:02;24.40;62.70
17341;DHT22;8788;49.930;8.660;2023-06-14T11:02:52;24.70;62.90
17341;DHT22;8788;49.930;8.660;2023-06-14T11:05:24;25.10;63.20
17341;DHT22;8788;49.930;8.660;2023-06-14T11:08:12;25.40;62.60
17341;DHT22;8788;49.930;8.660;2023-06-14T11:10:44;25.70;62.10
17341;DHT22;8788;49.930;8.660;2023-06-14T11:13:12;25.90;61.90
17341;DHT22;8788;49.930;8.660;2023-06-14T11:15:45;26.10;61.00
17341;DHT22;8788;49.930;8.660;2023-06-14T11:18:13;26.30;60.50
17341;DHT22;8788;49.930;8.660;2023-06-14T11:20:42;26.60;60.50
17341;DHT22;8788;49.930;8.660;2023-06-14T11:23:09;26.70;60.00
17341;DHT22;8788;49.930;8.660;2023-06-14T11:25:36;26.60;59.50
17341;DHT22;8788;49.930;8.660;2023-06-14T11:28:03;26.50;59.40
17341;DHT22;8788;49.930;8.660;2023-06-14T11:30:30;26.20;59.10
17341;DHT22;8788;49.930;8.660;2023-06-14T11:32:59;25.90;59.20
17341;DHT22;8788;49.930;8.660;2023-06-14T11:35:26;25.70;59.00
17341;DHT22;8788;49.930;8.660;2023-06-14T11:37:54;25.50;59.00
17341;DHT22;8788;49.930;8.660;2023-06-14T11:40:24;25.50;59.40
17341;DHT22;8788;49.930;8.660;2023-06-14T11:42:58;25.50;59.40
17341;DHT22;8788;49.930;8.660;2023-06-14T11:45:25;25.40;59.40
17341;DHT22;8788;49.930;8.660;2023-06-14T11:47:55;25.50;59.40
17341;DHT22;8788;49.930;8.660;2023-06-14T11:50:25;25.50;59.50
17341;DHT22;8788;49.930;8.660;2023-06-14T11:52:53;25.50;59.70
17341;DHT22;8788;49.930;8.660;2023-06-14T11:55:21;25.50;60.10
17341;DHT22;8788;49.930;8.660;2023-06-14T11:57:48;25.60;60.00
17341;DHT22;8788;49.930;8.660;2023-06-14T12:00:16;25.50;59.90
17341;DHT22;8788;49.930;8.660;2023-06-14T12:02:52;25.50;59.70
17341;DHT22;8788;49.930;8.660;2023-06-14T12:05:21;25.50;60.30
17341;DHT22;8788;49.930;8.660;2023-06-14T12:07:50;25.50;59.60
17341;DHT22;8788;49.930;8.660;2023-06-14T12:10:19;25.60;60.00
17341;DHT22;8788;49.930;8.660;2023-06-14T12:12:46;25.60;59.50
17341;DHT22;8788;49.930;8.660;2023-06-14T12:15:13;25.60;59.10
17341;DHT22;8788;49.930;8.660;2023-06-14T12:17:42;25.50;58.80
17341;DHT22;8788;49.930;8.660;2023-06-14T12:20:11;25.50;58.50
17341;DHT22;8788;49.930;8.660;2023-06-14T12:22:46;25.40;58.50
17341;DHT22;8788;49.930;8.660;2023-06-14T12:25:28;25.40;58.80
17341;DHT22;8788;49.930;8.660;2023-06-14T12:27:57;25.60;59.10
17341;DHT22;8788;49.930;8.660;2023-06-14T12:30:24;25.90;59.00
17341;DHT22;8788;49.930;8.660;2023-06-14T12:32:51;26.10;59.10
17341;DHT22;8788;49.930;8.660;2023-06-14T12:35:18;26.20;59.30
17341;DHT22;8788;49.930;8.660;2023-06-14T12:37:46;26.20;59.00
17341;DHT22;8788;49.930;8.660;2023-06-14T12:40:13;26.30;59.10
17341;DHT22;8788;49.930;8.660;2023-06-14T12:42:42;26.40;58.90
17341;DHT22;8788;49.930;8.660;2023-06-14T12:45:09;26.50;58.40
17341;DHT22;8788;49.930;8.660;2023-06-14T12:47:37;26.70;58.30
17341;DHT22;8788;49.930;8.660;2023-06-14T12:50:05;26.90;58.10
17341;DHT22;8788;49.930;8.660;2023-06-14T12:52:32;27.10;57.90
17341;DHT22;8788;49.930;8.660;2023-06-14T12:55:02;27.20;58.00
17341;DHT22;8788;49.930;8.660;2023-06-14T12:57:30;27.20;57.80
17341;DHT22;8788;49.930;8.660;2023-06-14T12:59:59;27.30;57.50
17341;DHT22;8788;49.930;8.660;2023-06-14T13:02:27;27.20;57.10
17341;DHT22;8788;49.930;8.660;2023-06-14T13:04:54;27.20;57.30
17341;DHT22;8788;49.930;8.660;2023-06-14T13:07:26;27.40;57.60
17341;DHT22;8788;49.930;8.660;2023-06-14T13:09:53;27.70;57.70
17341;DHT22;8788;49.930;8.660;2023-06-14T13:12:20;28.00;57.10
17341;DHT22;8788;49.930;8.660;2023-06-14T13:14:47;28.00;56.30
17341;DHT22;8788;49.930;8.660;2023-06-14T13:17:15;27.80;55.60
17341;DHT22;8788;49.930;8.660;2023-06-14T13:19:42;27.30;55.20
17341;DHT22;8788;49.930;8.660;2023-06-14T13:22:10;27.00;55.60
17341;DHT22;8788;49.930;8.660;2023-06-14T13:24:37;26.80;55.70
17341;DHT22;8788;49.930;8.660;2023-06-14T13:27:04;26.80;55.90
17341;DHT22;8788;49.930;8.660;2023-06-14T13:29:31;26.60;56.60
17341;DHT22;8788;49.930;8.660;2023-06-14T13:32:01;26.70;57.00
17341;DHT22;8788;49.930;8.660;2023-06-14T13:34:29;26.90;56.30
17341;DHT22;8788;49.930;8.660;2023-06-14T13:36:57;27.20;56.10
17341;DHT22;8788;49.930;8.660;2023-06-14T13:39:24;27.30;55.70
17341;DHT22;8788;49.930;8.660;2023-06-14T13:41:51;27.50;55.10
17341;DHT22;8788;49.930;8.660;2023-06-14T13:44:18;27.50;55.20
17341;DHT22;8788;49.930;8.660;2023-06-14T13:46:47;27.50;54.90
17341;DHT22;8788;49.930;8.660;2023-06-14T13:49:14;27.30;54.50
17341;DHT22;8788;49.930;8.660;2023-06-14T13:51:42;26.90;54.50
17341;DHT22;8788;49.930;8.660;2023-06-14T13:54:12;26.70;55.00
17341;DHT22;8788;49.930;8.660;2023-06-14T13:56:40;26.70;55.20
17341;DHT22;8788;49.930;8.660;2023-06-14T13:59:07;26.70;55.40
17341;DHT22;8788;49.930;8.660;2023-06-14T14:01:35;26.80;55.80
17341;DHT22;8788;49.930;8.660;2023-06-14T14:04:02;27.10;55.70
17341;DHT22;8788;49.930;8.660;2023-06-14T14:06:29;27.30;55.20
17341;DHT22;8788;49.930;8.660;2023-06-14T14:08:57;27.30;54.80
17341;DHT22;8788;49.930;8.660;2023-06-14T14:11:24;27.20;54.80
17341;DHT22;8788;49.930;8.660;2023-06-14T14:13:51;27.00;54.90
17341;DHT22;8788;49.930;8.660;2023-06-14T14:16:19;26.80;55.00
17341;DHT22;8788;49.930;8.660;2023-06-14T14:18:46;26.80;55.70
17341;DHT22;8788;49.930;8.660;2023-06-14T14:21:13;26.60;55.30
17341;DHT22;8788;49.930;8.660;2023-06-14T14:23:40;26.60;55.50
17341;DHT22;8788;49.930;8.660;2023-06-14T14:26:08;26.60;55.40
17341;DHT22;8788;49.930;8.660;2023-06-14T14:28:35;26.70;55.50
17341;DHT22;8788;49.930;8.660;2023-06-14T14:31:02;27.00;55.40
17341;DHT22;8788;49.930;8.660;2023-06-14T14:33:29;27.30;54.90
17341;DHT22;8788;49.930;8.660;2023-06-14T14:35:56;27.60;55.50
17341;DHT22;8788;49.930;8.660;2023-06-14T14:38:25;27.80;54.00
17341;DHT22;8788;49.930;8.660;2023-06-14T14:40:52;28.00;53.40
17341;DHT22;8788;49.930;8.660;2023-06-14T14:43:21;27.90;53.20
17341;DHT22;8788;49.930;8.660;2023-06-14T14:45:48;27.70;53.80
17341;DHT22;8788;49.930;8.660;2023-06-14T14:48:15;27.50;53.90
17341;DHT22;8788;49.930;8.660;2023-06-14T14:50:42;27.30;54.10
17341;DHT22;8788;49.930;8.660;2023-06-14T14:53:09;27.20;53.80
17341;DHT22;8788;49.930;8.660;2023-06-14T14:55:36;26.80;53.70
17341;DHT22;8788;49.930;8.660;2023-06-14T14:58:04;26.80;54.30
17341;DHT22;8788;49.930;8.660;2023-06-14T15:00:34;26.90;54.50
17341;DHT22;8788;49.930;8.660;2023-06-14T15:03:01;27.20;54.50
17341;DHT22;8788;49.930;8.660;2023-06-14T15:05:28;27.30;54.00
17341;DHT22;8788;49.930;8.660;2023-06-14T15:07:55;27.60;54.00
17341;DHT22;8788;49.930;8.660;2023-06-14T15:10:22;27.70;53.60
17341;DHT22;8788;49.930;8.660;2023-06-14T15:12:49;27.90;53.40
17341;DHT22;8788;49.930;8.660;2023-06-14T15:15:16;28.10;53.20
17341;DHT22;8788;49.930;8.660;2023-06-14T15:17:45;28.20;52.90
17341;DHT22;8788;49.930;8.660;2023-06-14T15:20:12;28.20;52.60
17341;DHT22;8788;49.930;8.660;2023-06-14T15:22:40;28.30;53.30
17341;DHT22;8788;49.930;8.660;2023-06-14T15:25:07;28.40;52.90
17341;DHT22;8788;49.930;8.660;2023-06-14T15:27:34;28.20;52.80
17341;DHT22;8788;49.930;8.660;2023-06-14T15:30:02;28.00;53.00
17341;DHT22;8788;49.930;8.660;2023-06-14T15:32:30;27.70;53.10
17341;DHT22;8788;49.930;8.660;2023-06-14T15:34:58;27.50;53.20
17341;DHT22;8788;49.930;8.660;2023-06-14T15:37:25;27.40;53.50
17341;DHT22;8788;49.930;8.660;2023-06-14T15:39:52;27.30;53.70
17341;DHT22;8788;49.930;8.660;2023-06-14T15:42:19;27.20;53.80
17341;DHT22;8788;49.930;8.660;2023-06-14T15:44:46;27.10;53.80
17341;DHT22;8788;49.930;8.660;2023-06-14T15:47:13;26.80;53.60
17341;DHT22;8788;49.930;8.660;2023-06-14T15:49:40;26.60;53.80
17341;DHT22;8788;49.930;8.660;2023-06-14T15:52:09;26.60;54.30